createdAt,value
2023-02-13T00:02:05.580Z,-1.23
2023-02-13T00:04:32.495Z,-1.30
2023-02-13T00:06:59.326Z,-1.31
2023-02-13T00:09:26.218Z,-1.31
2023-02-13T00:11:53.101Z,-1.31
2023-02-13T00:14:19.974Z,-1.37
2023-02-13T00:16:46.888Z,-1.33
2023-02-13T00:19:13.821Z,-1.31
2023-02-13T00:21:40.725Z,-1.23
2023-02-13T00:24:07.730Z,-1.27
2023-02-13T00:26:34.584Z,-1.23
2023-02-13T00:29:01.526Z,-1.04
2023-02-13T00:31:28.480Z,-1.16
2023-02-13T00:33:55.360Z,-1.18
2023-02-13T00:36:23.354Z,-1.08
2023-02-13T00:38:51.402Z,-1.19
2023-02-13T00:41:20.244Z,-1.21
2023-02-13T00:43:47.855Z,-1.20
2023-02-13T00:46:15.674Z,-1.27
2023-02-13T00:48:42.881Z,-1.28
2023-02-13T00:51:09.975Z,-1.23
2023-02-13T00:53:37.804Z,-1.35
2023-02-13T00:56:06.297Z,-1.33
2023-02-13T00:58:33.965Z,-1.39
2023-02-13T01:01:01.058Z,-1.43
2023-02-13T01:03:28.018Z,-1.46
2023-02-13T01:05:57.094Z,-1.52
2023-02-13T01:08:28.350Z,-1.58
2023-02-13T01:10:56.326Z,-1.56
2023-02-13T01:13:23.524Z,-1.74
2023-02-13T01:15:51.528Z,-1.76
2023-02-13T01:18:20.393Z,-1.73
2023-02-13T01:21:06.103Z,-1.84
2023-02-13T01:23:34.920Z,-1.83
2023-02-13T01:26:04.786Z,-1.82
2023-02-13T01:28:32.446Z,-1.92
2023-02-13T01:31:00.356Z,-1.91
2023-02-13T01:33:29.547Z,-1.87
2023-02-13T01:35:56.550Z,-1.98
2023-02-13T01:38:23.549Z,-1.92
2023-02-13T01:40:53.200Z,-1.93
2023-02-13T01:43:24.321Z,-2.05
2023-02-13T01:45:56.394Z,-2.03
2023-02-13T01:48:27.374Z,-2.07
2023-02-13T01:51:02.980Z,-2.12
2023-02-13T01:53:56.649Z,-2.04
2023-02-13T01:56:41.095Z,-2.15
2023-02-13T01:59:33.741Z,-2.15
2023-02-13T02:02:01.536Z,-2.14
2023-02-13T02:04:36.233Z,-2.19
2023-02-13T02:07:41.113Z,-2.15
2023-02-13T02:10:16.860Z,-2.26
2023-02-13T02:12:51.173Z,-2.22
2023-02-13T02:15:20.282Z,-2.22
2023-02-13T02:17:47.564Z,-2.26
2023-02-13T02:20:23.345Z,-2.13
2023-02-13T02:23:17.288Z,-2.18
2023-02-13T02:26:06.561Z,-2.18
2023-02-13T02:28:47.090Z,-2.19
2023-02-13T02:31:46.891Z,-2.25
2023-02-13T02:34:38.988Z,-2.26
2023-02-13T02:37:09.064Z,-2.33
2023-02-13T02:39:57.140Z,-2.30
2023-02-13T02:42:24.073Z,-2.28
2023-02-13T02:45:05.665Z,-2.44
2023-02-13T02:48:07.318Z,-2.31
2023-02-13T02:50:46.353Z,-2.41
2023-02-13T02:53:26.859Z,-2.40
2023-02-13T02:56:29.931Z,-2.38
2023-02-13T02:59:22.587Z,-2.58
2023-02-13T03:02:10.261Z,-2.43
2023-02-13T03:05:09.712Z,-2.60
2023-02-13T03:07:36.647Z,-2.54
2023-02-13T03:10:25.968Z,-2.58
2023-02-13T03:28:46.194Z,-3.17
2023-02-13T03:31:50.411Z,-3.10
2023-02-13T03:34:23.731Z,-3.00
2023-02-13T03:37:19.778Z,-2.93
2023-02-13T03:39:46.588Z,-3.04
2023-02-13T03:42:29.087Z,-2.87
2023-02-13T03:45:31.836Z,-2.99
2023-02-13T03:48:01.552Z,-2.97
2023-02-13T03:50:29.412Z,-2.95
2023-02-13T03:53:03.221Z,-3.03
2023-02-13T03:55:59.726Z,-2.92
2023-02-13T03:58:50.572Z,-3.10
2023-02-13T04:01:22.354Z,-3.02
2023-02-13T04:03:57.046Z,-2.98
2023-02-13T04:06:32.975Z,-3.14
2023-02-13T04:08:59.906Z,-3.00
2023-02-13T04:12:01.529Z,-3.14
2023-02-13T04:14:38.733Z,-3.10
2023-02-13T04:17:31.418Z,-3.12
2023-02-13T04:19:58.361Z,-3.17
2023-02-13T04:22:25.248Z,-3.06
2023-02-13T04:24:52.139Z,-3.12
2023-02-13T04:29:45.972Z,-3.00
2023-02-13T04:32:14.262Z,-3.16
2023-02-13T04:34:41.080Z,-3.09
2023-02-13T04:37:08.066Z,-3.22
2023-02-13T04:39:35.446Z,-3.27
2023-02-13T04:42:02.323Z,-3.12
2023-02-13T04:44:29.205Z,-3.21
2023-02-13T04:46:56.050Z,-3.17
2023-02-13T04:49:22.958Z,-3.06
2023-02-13T04:51:49.765Z,-3.33
2023-02-13T04:54:16.566Z,-3.22
2023-02-13T04:56:43.466Z,-3.18
2023-02-13T04:59:10.289Z,-3.30
2023-02-13T05:01:37.218Z,-3.15
2023-02-13T05:04:04.308Z,-3.31
2023-02-13T05:06:31.191Z,-3.20
2023-02-13T05:08:58.047Z,-3.03
2023-02-13T05:11:24.933Z,-3.15
2023-02-13T05:13:51.742Z,-3.03
2023-02-13T05:16:18.652Z,-3.07
2023-02-13T05:18:45.482Z,-3.08
2023-02-13T05:21:38.455Z,-2.89
2023-02-13T05:24:05.647Z,-2.89
2023-02-13T05:26:32.736Z,-2.65
2023-02-13T05:29:18.265Z,-2.42
2023-02-13T05:31:49.991Z,-2.45
2023-02-13T05:34:17.099Z,-1.98
2023-02-13T05:36:43.999Z,-1.96
2023-02-13T05:39:10.916Z,-2.03
2023-02-13T05:41:37.773Z,-1.36
2023-02-13T05:44:05.067Z,-1.56
2023-02-13T05:46:31.937Z,-1.35
2023-02-13T05:48:59.042Z,-0.65
2023-02-13T05:51:25.973Z,-0.80
2023-02-13T05:53:52.897Z,-0.39
2023-02-13T05:56:19.805Z,0.53
2023-02-13T05:58:46.676Z,-0.23
2023-02-13T06:01:13.868Z,0.94
2023-02-13T06:03:40.709Z,2.59
2023-02-13T06:06:07.814Z,1.19
2023-02-13T06:08:34.807Z,1.88
2023-02-13T06:11:02.199Z,3.39
2023-02-13T06:13:29.390Z,1.82
2023-02-13T06:15:56.787Z,2.96
2023-02-13T06:18:23.774Z,4.05
2023-02-13T06:20:50.694Z,2.33
2023-02-13T06:23:17.913Z,3.71
2023-02-13T06:25:44.745Z,4.22
2023-02-13T06:28:11.617Z,4.42
2023-02-13T06:30:38.504Z,3.64
2023-02-13T06:33:05.409Z,4.17
2023-02-13T06:35:32.265Z,3.81
2023-02-13T06:37:59.119Z,2.27
2023-02-13T06:40:26.096Z,5.09
2023-02-13T06:42:53.081Z,7.05
2023-02-13T06:45:19.970Z,7.60
2023-02-13T06:47:48.582Z,8.62
2023-02-13T06:50:16.837Z,9.37
2023-02-13T06:52:51.399Z,10.17
2023-02-13T06:55:19.094Z,11.07
2023-02-13T06:57:46.892Z,10.48
2023-02-13T07:00:16.115Z,10.84
2023-02-13T07:02:44.338Z,11.04
2023-02-13T07:05:11.906Z,9.61
2023-02-13T07:07:40.719Z,9.84
2023-02-13T07:10:10.648Z,8.80
2023-02-13T07:12:37.735Z,8.16
2023-02-13T07:15:05.851Z,7.64
2023-02-13T07:17:34.042Z,7.78
2023-02-13T07:20:00.977Z,8.45
2023-02-13T07:22:27.920Z,8.51
2023-02-13T07:24:54.870Z,7.69
2023-02-13T07:27:21.738Z,9.27
2023-02-13T07:29:48.649Z,9.50
2023-02-13T07:32:15.598Z,9.37
2023-02-13T07:34:55.816Z,8.62
2023-02-13T07:37:29.331Z,8.65
2023-02-13T07:39:56.159Z,8.88
2023-02-13T07:42:23.169Z,8.54
2023-02-13T07:44:50.174Z,9.76
2023-02-13T07:47:19.027Z,9.18
2023-02-13T07:49:47.114Z,9.34
2023-02-13T07:52:14.053Z,10.23
2023-02-13T07:54:47.712Z,11.72
2023-02-13T07:57:15.513Z,10.45
2023-02-13T07:59:42.346Z,10.21
2023-02-13T08:02:18.258Z,8.76
2023-02-13T08:04:47.848Z,7.31
2023-02-13T08:07:16.693Z,6.13
2023-02-13T08:10:05.823Z,6.00
2023-02-13T08:12:35.821Z,6.09
2023-02-13T08:15:03.213Z,5.81
2023-02-13T08:17:30.072Z,5.16
2023-02-13T08:19:57.039Z,5.73
2023-02-13T08:22:24.091Z,5.29
2023-02-13T08:24:50.922Z,4.82
2023-02-13T08:27:17.792Z,5.07
2023-02-13T08:29:44.687Z,4.90
2023-02-13T08:32:11.643Z,5.55
2023-02-13T08:34:38.611Z,5.84
2023-02-13T08:37:05.406Z,5.69
2023-02-13T08:39:32.338Z,6.68
2023-02-13T08:41:59.238Z,6.88
2023-02-13T08:44:26.177Z,6.71
2023-02-13T08:46:53.160Z,6.84
2023-02-13T08:49:20.293Z,7.87
2023-02-13T08:51:47.157Z,7.52
2023-02-13T08:54:13.974Z,6.83
2023-02-13T08:56:41.721Z,7.07
2023-02-13T08:59:08.798Z,7.87
2023-02-13T09:01:35.726Z,8.90
2023-02-13T09:04:02.623Z,7.78
2023-02-13T09:06:29.668Z,5.00
2023-02-13T09:08:56.692Z,5.97
2023-02-13T09:11:23.660Z,6.60
2023-02-13T09:13:54.645Z,7.82
2023-02-13T09:16:22.249Z,9.08
2023-02-13T09:18:52.659Z,9.94
2023-02-13T09:21:22.797Z,9.74
2023-02-13T09:23:51.103Z,9.04
2023-02-13T09:26:20.796Z,6.85
2023-02-13T09:28:48.109Z,6.40
2023-02-13T09:31:17.968Z,8.29
2023-02-13T09:33:47.082Z,8.18
2023-02-13T09:36:20.203Z,7.56
2023-02-13T09:38:57.865Z,5.64
2023-02-13T09:41:43.177Z,8.30
2023-02-13T09:44:39.202Z,9.16
2023-02-13T09:47:24.338Z,9.33
2023-02-13T09:49:57.231Z,10.23
2023-02-13T09:52:26.534Z,11.66
2023-02-13T09:54:53.448Z,12.31
2023-02-13T09:57:42.606Z,10.90
2023-02-13T10:00:20.192Z,7.58
2023-02-13T10:02:59.383Z,7.79
2023-02-13T10:05:57.468Z,8.84
2023-02-13T10:08:38.810Z,10.19
2023-02-13T10:11:26.125Z,10.61
2023-02-13T10:14:09.547Z,12.58
2023-02-13T10:17:05.542Z,9.07
2023-02-13T10:19:55.455Z,8.21
2023-02-13T10:22:32.019Z,10.08
2023-02-13T10:25:08.495Z,12.04
2023-02-13T10:27:40.181Z,15.23
2023-02-13T10:30:29.245Z,15.34
2023-02-13T10:33:20.328Z,12.23
2023-02-13T10:36:10.243Z,11.40
2023-02-13T10:38:44.745Z,16.40
2023-02-13T10:41:30.303Z,14.91
2023-02-13T10:44:10.994Z,14.97
2023-02-13T10:46:40.887Z,15.09
2023-02-13T10:49:26.509Z,17.65
2023-02-13T10:52:23.228Z,13.94
2023-02-13T10:54:55.966Z,11.63
2023-02-13T10:57:36.556Z,12.57
2023-02-13T11:00:16.280Z,12.02
2023-02-13T11:02:43.181Z,14.52
2023-02-13T11:05:21.506Z,16.88
2023-02-13T11:07:49.804Z,18.57
2023-02-13T11:10:22.720Z,17.57
2023-02-13T11:12:50.341Z,13.68
2023-02-13T11:15:56.640Z,13.55
2023-02-13T11:18:27.080Z,13.39
2023-02-13T11:21:10.811Z,16.39
2023-02-13T11:23:42.768Z,16.63
2023-02-13T11:26:14.810Z,15.78
2023-02-13T11:28:58.180Z,12.59
2023-02-13T11:31:27.049Z,16.08
2023-02-13T11:33:54.379Z,14.08
2023-02-13T11:36:33.771Z,14.36
2023-02-13T11:39:07.415Z,17.17
2023-02-13T11:41:42.673Z,12.13
2023-02-13T11:44:31.658Z,13.17
2023-02-13T11:47:01.351Z,12.29
2023-02-13T11:49:30.503Z,15.43
2023-02-13T11:52:00.783Z,15.81
2023-02-13T11:54:30.966Z,13.27
2023-02-13T11:57:06.323Z,10.18
2023-02-13T11:59:40.875Z,11.65
2023-02-13T12:02:20.218Z,9.96
2023-02-13T12:05:08.359Z,9.79
2023-02-13T12:07:35.198Z,10.62
2023-02-13T12:10:25.342Z,9.78
2023-02-13T12:13:25.535Z,9.70
2023-02-13T12:16:01.016Z,12.23
2023-02-13T12:18:37.466Z,12.09
2023-02-13T12:21:43.136Z,8.71
2023-02-13T12:24:13.126Z,9.36
2023-02-13T12:27:14.748Z,8.10
2023-02-13T12:30:05.901Z,5.16
2023-02-13T12:32:57.024Z,5.17
2023-02-13T12:35:47.029Z,5.29
2023-02-13T12:38:26.003Z,4.14
2023-02-13T12:41:20.197Z,4.47
2023-02-13T12:44:04.535Z,4.40
2023-02-13T12:46:56.826Z,3.80
2023-02-13T12:49:26.453Z,4.16
2023-02-13T12:52:02.412Z,4.49
2023-02-13T12:54:37.499Z,3.93
2023-02-13T12:57:42.241Z,4.38
2023-02-13T13:00:26.821Z,4.63
2023-02-13T13:03:22.675Z,3.88
2023-02-13T13:06:28.039Z,4.05
2023-02-13T13:09:25.881Z,4.15
2023-02-13T13:12:13.971Z,3.81
2023-02-13T13:14:57.115Z,3.93
2023-02-13T13:17:42.806Z,4.06
2023-02-13T13:20:49.160Z,4.01
2023-02-13T13:23:20.627Z,4.23
2023-02-13T13:25:47.482Z,3.97
2023-02-13T13:28:24.923Z,4.13
2023-02-13T13:30:53.812Z,4.20
2023-02-13T13:33:26.266Z,3.80
2023-02-13T13:36:05.809Z,3.70
2023-02-13T13:38:38.517Z,4.02
2023-02-13T13:41:18.167Z,3.68
2023-02-13T13:44:18.636Z,3.97
2023-02-13T13:46:53.313Z,4.15
2023-02-13T13:49:38.141Z,3.70
2023-02-13T13:52:23.462Z,3.89
2023-02-13T13:54:53.749Z,3.71
2023-02-13T13:57:40.874Z,3.46
2023-02-13T14:00:13.573Z,3.78
2023-02-13T14:02:48.518Z,3.62
2023-02-13T14:05:33.451Z,3.44
2023-02-13T14:08:20.156Z,3.73
2023-02-13T14:10:49.968Z,3.36
2023-02-13T14:13:36.135Z,3.37
2023-02-13T14:16:04.947Z,3.50
2023-02-13T14:18:32.535Z,3.34
2023-02-13T14:21:01.917Z,3.36
2023-02-13T14:23:50.767Z,3.47
2023-02-13T14:26:17.632Z,3.23
2023-02-13T14:28:58.693Z,3.32
2023-02-13T14:31:40.696Z,3.21
2023-02-13T14:34:17.145Z,3.20
2023-02-13T14:36:49.064Z,3.24
2023-02-13T14:39:36.440Z,3.02
2023-02-13T14:42:21.773Z,3.10
2023-02-13T14:44:57.206Z,3.05
2023-02-13T14:47:30.500Z,2.95
2023-02-13T14:49:59.527Z,3.06
2023-02-13T14:52:33.145Z,2.90
2023-02-13T14:55:04.460Z,2.86
2023-02-13T14:57:37.979Z,2.91
2023-02-13T15:00:17.491Z,2.79
2023-02-13T15:02:53.294Z,2.91
2023-02-13T15:05:21.886Z,2.94
2023-02-13T15:08:17.207Z,2.87
2023-02-13T15:10:53.453Z,3.00
2023-02-13T15:13:35.236Z,2.90
2023-02-13T15:16:02.515Z,2.91
2023-02-13T15:30:01.721Z,2.47
2023-02-13T15:32:34.915Z,2.65
2023-02-13T15:35:01.915Z,2.63
2023-02-13T15:37:30.824Z,2.88
2023-02-13T15:40:17.780Z,2.90
2023-02-13T15:42:45.001Z,2.68
2023-02-13T15:45:18.008Z,2.85
2023-02-13T15:47:46.885Z,2.81
2023-02-13T15:50:31.054Z,2.66
2023-02-13T15:53:00.044Z,2.60
2023-02-13T15:55:29.171Z,2.57
2023-02-13T15:57:59.141Z,2.53
2023-02-13T16:00:30.808Z,2.71
2023-02-13T16:02:59.342Z,2.68
2023-02-13T16:05:39.367Z,2.60
2023-02-13T16:08:40.709Z,2.64
2023-02-13T16:11:24.108Z,2.58
2023-02-13T16:14:20.993Z,2.55
2023-02-13T16:17:05.991Z,2.62
2023-02-13T16:19:37.174Z,2.56
2023-02-13T16:22:27.307Z,2.56
2023-02-13T16:25:04.168Z,2.63
2023-02-13T16:27:31.359Z,2.46
2023-02-13T16:30:01.038Z,2.32
2023-02-13T16:32:41.719Z,2.30
2023-02-13T16:35:30.789Z,2.20
2023-02-13T16:38:02.348Z,2.03
2023-02-13T16:40:42.820Z,1.82
2023-02-13T16:43:34.235Z,1.82
2023-02-13T16:46:19.381Z,1.74
2023-02-13T16:49:01.341Z,1.69
2023-02-13T16:51:42.752Z,1.66
2023-02-13T16:54:16.001Z,1.57
2023-02-13T16:56:54.048Z,1.56
2023-02-13T16:59:43.886Z,1.56
2023-02-13T17:02:25.202Z,1.46
2023-02-13T17:05:20.793Z,1.51
2023-02-13T17:07:53.308Z,1.47
2023-02-13T17:10:35.402Z,1.41
2023-02-13T17:13:19.439Z,1.51
2023-02-13T17:15:48.026Z,1.43
2023-02-13T17:18:14.972Z,1.29
2023-02-13T17:20:44.156Z,1.23
2023-02-13T17:23:22.388Z,1.22
2023-02-13T17:25:52.006Z,1.10
2023-02-13T17:28:21.228Z,1.21
2023-02-13T17:30:51.176Z,1.21
2023-02-13T17:33:22.229Z,1.01
2023-02-13T17:35:49.683Z,1.05
2023-02-13T17:38:16.849Z,1.16
2023-02-13T17:40:44.852Z,1.08
2023-02-13T17:43:13.825Z,1.15
2023-02-13T17:45:40.903Z,1.32
2023-02-13T17:48:08.174Z,1.17
2023-02-13T17:50:35.625Z,1.19
2023-02-13T17:53:05.867Z,1.11
2023-02-13T17:55:34.514Z,1.10
2023-02-13T17:58:02.234Z,1.11
2023-02-13T18:00:32.018Z,1.16
2023-02-13T18:03:00.710Z,1.06
2023-02-13T18:05:28.338Z,1.04
2023-02-13T18:07:55.758Z,1.14
2023-02-13T18:10:26.057Z,0.98
2023-02-13T18:12:54.519Z,0.78
2023-02-13T18:15:21.446Z,0.77
2023-02-13T18:17:48.371Z,0.78
2023-02-13T18:20:18.263Z,0.71
2023-02-13T18:22:45.413Z,0.77
2023-02-13T18:25:13.436Z,0.85
2023-02-13T18:27:40.522Z,0.62
2023-02-13T18:30:08.671Z,0.63
2023-02-13T18:32:35.812Z,0.76
2023-02-13T18:35:02.841Z,0.40
2023-02-13T18:37:30.210Z,0.39
2023-02-13T18:39:57.093Z,0.49
2023-02-13T18:42:24.003Z,0.28
2023-02-13T18:44:51.017Z,0.27
2023-02-13T18:47:18.206Z,0.37
2023-02-13T18:49:47.919Z,0.20
2023-02-13T18:52:15.352Z,0.17
2023-02-13T18:54:42.152Z,0.15
2023-02-13T18:57:09.395Z,0.15
2023-02-13T18:59:36.241Z,0.04
2023-02-13T19:02:04.381Z,0.02
2023-02-13T19:04:31.730Z,0.02
2023-02-13T19:06:58.663Z,-0.10
2023-02-13T19:09:25.456Z,-0.09
2023-02-13T19:11:52.537Z,-0.16
2023-02-13T19:14:19.847Z,-0.15
2023-02-13T19:16:46.939Z,-0.12
2023-02-13T19:19:16.980Z,-0.12
2023-02-13T19:21:44.032Z,-0.17
2023-02-13T19:24:15.465Z,-0.04
2023-02-13T19:26:42.675Z,-0.03
2023-02-13T19:29:09.605Z,-0.09
2023-02-13T19:31:36.632Z,0.00
2023-02-13T19:34:05.885Z,-0.01
2023-02-13T19:36:33.183Z,-0.13
2023-02-13T19:39:05.393Z,-0.14
2023-02-13T19:41:33.162Z,-0.14
2023-02-13T19:44:01.192Z,-0.22
2023-02-13T19:46:30.473Z,-0.23
2023-02-13T19:48:58.059Z,-0.17
2023-02-13T19:51:27.864Z,-0.31
2023-02-13T19:54:01.227Z,-0.18
2023-02-13T19:56:29.646Z,-0.14
2023-02-13T19:58:56.953Z,-0.20
2023-02-13T20:01:25.695Z,-0.12
2023-02-13T20:03:53.739Z,-0.10
2023-02-13T20:06:27.947Z,-0.14
2023-02-13T20:08:58.298Z,-0.08
2023-02-13T20:11:25.585Z,-0.15
2023-02-13T20:13:57.596Z,-0.27
2023-02-13T20:16:24.528Z,-0.21
2023-02-13T20:18:51.554Z,-0.35
2023-02-13T20:21:19.461Z,-0.51
2023-02-13T20:23:51.809Z,-0.38
2023-02-13T20:26:19.537Z,-0.34
2023-02-13T20:28:48.100Z,-0.39
2023-02-13T20:31:20.961Z,-0.33
2023-02-13T20:33:49.719Z,-0.23
2023-02-13T20:36:22.328Z,-0.28
2023-02-13T20:38:50.700Z,-0.21
2023-02-13T20:41:19.825Z,-0.12
2023-02-13T20:43:47.217Z,-0.28
2023-02-13T20:46:18.083Z,-0.20
2023-02-13T20:48:47.447Z,-0.08
2023-02-13T20:51:16.931Z,-0.24
2023-02-13T20:53:45.153Z,-0.18
2023-02-13T20:56:12.053Z,-0.10
2023-02-13T20:58:41.337Z,-0.22
2023-02-13T21:01:30.030Z,-0.18
2023-02-13T21:03:57.497Z,-0.11
2023-02-13T21:06:35.991Z,-0.15
2023-02-13T21:09:05.591Z,-0.05
2023-02-13T21:11:34.473Z,-0.01
2023-02-13T21:14:02.428Z,0.00
2023-02-13T21:16:35.467Z,0.00
2023-02-13T21:19:06.436Z,0.09
2023-02-13T21:21:34.591Z,-0.02
2023-02-13T21:24:08.091Z,0.06
2023-02-13T21:26:36.077Z,0.11
2023-02-13T21:29:04.138Z,0.03
2023-02-13T21:31:37.162Z,0.10
2023-02-13T21:34:06.586Z,0.19
2023-02-13T21:36:35.431Z,0.19
2023-02-13T21:39:03.589Z,0.23
2023-02-13T21:41:30.512Z,0.37
2023-02-13T21:43:57.507Z,0.30
2023-02-13T21:46:30.196Z,0.34
2023-02-13T21:48:59.801Z,0.40
2023-02-13T21:51:28.517Z,0.31
2023-02-13T21:53:56.071Z,0.37
2023-02-13T21:56:25.732Z,0.47
2023-02-13T21:58:53.267Z,0.50
2023-02-13T22:01:26.416Z,0.51
2023-02-13T22:03:57.297Z,0.49
2023-02-13T22:06:25.624Z,0.47
2023-02-13T22:09:01.320Z,0.54
2023-02-13T22:11:28.960Z,0.47
2023-02-13T22:13:57.751Z,0.42
2023-02-13T22:16:25.081Z,0.39
2023-02-13T22:18:52.055Z,0.42
2023-02-13T22:21:21.700Z,0.51
2023-02-13T22:23:51.353Z,0.51
2023-02-13T22:26:38.964Z,0.58
2023-02-13T22:29:09.475Z,0.56
2023-02-13T22:31:36.643Z,0.60
2023-02-13T22:34:05.549Z,0.67
2023-02-13T22:36:40.334Z,0.53
2023-02-13T22:39:09.545Z,0.52
2023-02-13T22:41:36.754Z,0.63
2023-02-13T22:44:04.115Z,0.64
2023-02-13T22:46:33.107Z,0.57
2023-02-13T22:49:00.296Z,0.74
2023-02-13T22:51:32.812Z,0.72
2023-02-13T22:54:00.221Z,0.67
2023-02-13T22:56:29.187Z,0.76
2023-02-13T22:58:56.964Z,0.72
2023-02-13T23:01:26.216Z,0.68
2023-02-13T23:03:53.509Z,0.69
2023-02-13T23:06:21.939Z,0.66
2023-02-13T23:08:52.580Z,0.47
2023-02-13T23:11:40.220Z,0.54
2023-02-13T23:14:07.397Z,0.32
2023-02-13T23:16:54.362Z,0.20
2023-02-13T23:19:21.947Z,0.24
2023-02-13T23:21:49.265Z,0.02
2023-02-13T23:24:16.482Z,-0.14
2023-02-13T23:26:43.554Z,-0.06
2023-02-13T23:29:10.510Z,-0.19
2023-02-13T23:31:37.931Z,-0.23
2023-02-13T23:34:04.785Z,-0.15
2023-02-13T23:36:31.630Z,-0.09
2023-02-13T23:38:58.542Z,-0.18
2023-02-13T23:41:25.359Z,-0.03
2023-02-13T23:43:52.284Z,-0.15
2023-02-13T23:46:19.197Z,-0.18
2023-02-13T23:48:46.484Z,-0.03
2023-02-13T23:51:13.578Z,-0.19
2023-02-13T23:53:40.555Z,-0.22
2023-02-13T23:56:07.978Z,-0.12
2023-02-13T23:58:35.088Z,-0.18
